Little London, Ohio
Current Conditions -  °F | °C
As of 6:52 PM on Monday 22 Dec 2014 (Local Time) from KMFD Reporting Station
Broken Clouds Broken Clouds  
Wind Chill: 32°   Ceiling: 12000
Heat Index: 39°   Visibility: 9mi
Dew Point: 33°   Wind: 10mph
Humidity: 79%   Direction: 110°ESE
Pressure: 29.88"   Gusts: NA
Location:  40.8848°N, 82.6515°W
Report Text: KMFD 222352Z 11009KT 9SM BKN120 04/01 A2988 RMK AO2 SLP133 T00390006 10067 20022 55008
Loading
Personal Weather Stations






























Interactive Weather Map New forecast layout! Learn more

10-Day Weather Forecast

Advertisements
Track Severe Weather on mobile